createdAt,value
2022-10-03T00:01:17.830Z,14.48
2022-10-03T00:03:55.481Z,14.58
2022-10-03T00:06:36.001Z,14.79
2022-10-03T00:09:14.092Z,14.84
2022-10-03T00:11:49.531Z,14.77
2022-10-03T00:14:50.637Z,14.55
2022-10-03T00:17:27.441Z,14.16
2022-10-03T00:20:27.699Z,14.19
2022-10-03T00:22:57.547Z,13.92
2022-10-03T00:25:47.602Z,13.86
2022-10-03T00:29:10.366Z,13.85
2022-10-03T00:32:00.330Z,13.95
2022-10-03T00:34:48.215Z,14.41
2022-10-03T00:37:24.926Z,14.56
2022-10-03T00:40:37.008Z,14.78
2022-10-03T00:43:07.155Z,14.80
2022-10-03T00:46:06.053Z,14.63
2022-10-03T00:49:06.426Z,14.78
2022-10-03T00:51:52.016Z,14.62
2022-10-03T00:54:37.411Z,14.54
2022-10-03T00:57:49.214Z,14.38
2022-10-03T01:00:31.013Z,14.42
2022-10-03T01:02:58.311Z,14.21
2022-10-03T01:05:56.674Z,14.23
2022-10-03T01:08:55.110Z,14.24
2022-10-03T01:11:42.344Z,14.18
2022-10-03T01:14:44.241Z,14.25
2022-10-03T01:17:24.752Z,14.35
2022-10-03T01:19:57.255Z,14.31
2022-10-03T01:22:51.725Z,14.50
2022-10-03T01:25:39.933Z,14.64
2022-10-03T01:28:59.372Z,14.54
2022-10-03T01:31:42.755Z,14.61
2022-10-03T01:34:31.826Z,15.02
2022-10-03T01:37:02.546Z,14.85
2022-10-03T01:39:40.501Z,14.96
2022-10-03T01:42:31.948Z,14.97
2022-10-03T01:45:21.112Z,14.97
2022-10-03T01:47:57.426Z,14.86
2022-10-03T01:50:38.454Z,14.87
2022-10-03T01:53:13.661Z,14.85
2022-10-03T01:55:58.980Z,14.69
2022-10-03T01:58:31.361Z,14.12
2022-10-03T02:01:44.064Z,13.81
2022-10-03T02:04:45.776Z,13.64
2022-10-03T02:07:22.563Z,13.25
2022-10-03T02:09:54.175Z,13.13
2022-10-03T02:12:37.056Z,13.02
2022-10-03T02:15:16.634Z,13.32
2022-10-03T02:18:14.262Z,13.39
2022-10-03T02:21:15.000Z,13.39
2022-10-03T02:23:45.977Z,13.43
2022-10-03T02:26:33.991Z,13.49
2022-10-03T02:29:34.601Z,13.66
2022-10-03T02:32:19.572Z,13.83
2022-10-03T02:34:58.570Z,13.59
2022-10-03T02:38:05.688Z,14.04
2022-10-03T02:40:55.831Z,13.56
2022-10-03T02:43:33.102Z,13.98
2022-10-03T02:46:21.777Z,14.18
2022-10-03T02:49:18.671Z,14.07
2022-10-03T02:52:22.829Z,13.95
2022-10-03T02:54:58.590Z,13.25
2022-10-03T02:57:54.925Z,12.98
2022-10-03T03:00:59.829Z,12.97
2022-10-03T03:03:26.824Z,12.89
2022-10-03T03:05:59.571Z,12.81
2022-10-03T03:08:38.549Z,13.00
2022-10-03T03:11:09.826Z,13.23
2022-10-03T03:13:52.051Z,13.13
2022-10-03T03:16:39.614Z,13.19
2022-10-03T03:19:30.695Z,13.19
2022-10-03T03:22:15.851Z,12.96
2022-10-03T03:25:21.027Z,12.76
2022-10-03T03:28:03.513Z,12.81
2022-10-03T03:30:44.807Z,12.67
2022-10-03T03:33:25.651Z,12.70
2022-10-03T03:36:11.390Z,12.66
2022-10-03T03:38:38.078Z,12.87
2022-10-03T03:41:20.171Z,13.16
2022-10-03T03:44:17.530Z,13.38
2022-10-03T03:47:18.503Z,13.33
2022-10-03T03:50:00.359Z,13.30
2022-10-03T03:52:38.241Z,13.29
2022-10-03T03:55:08.086Z,13.26
2022-10-03T03:58:33.934Z,13.23
2022-10-03T04:01:19.441Z,13.37
2022-10-03T04:04:06.267Z,13.41
2022-10-03T04:06:46.317Z,13.32
2022-10-03T04:09:43.632Z,13.08
2022-10-03T04:12:24.745Z,13.25
2022-10-03T04:15:01.791Z,13.26
2022-10-03T04:18:36.429Z,13.39
2022-10-03T04:21:18.917Z,13.43
2022-10-03T04:24:04.286Z,13.88
2022-10-03T04:26:59.795Z,14.81
2022-10-03T04:29:47.271Z,15.08
2022-10-03T04:32:58.113Z,15.44
2022-10-03T04:35:54.704Z,15.68
2022-10-03T04:38:51.859Z,16.10
2022-10-03T04:41:27.775Z,17.07
2022-10-03T04:44:32.281Z,17.79
2022-10-03T04:47:02.937Z,18.24
2022-10-03T04:49:39.279Z,20.28
2022-10-03T04:52:39.530Z,21.62
2022-10-03T04:55:23.410Z,23.24
2022-10-03T04:58:17.450Z,22.91
2022-10-03T05:00:53.850Z,23.83
2022-10-03T05:03:58.007Z,23.99
2022-10-03T05:07:07.398Z,26.32
2022-10-03T05:09:42.678Z,28.05
2022-10-03T05:12:41.606Z,27.62
2022-10-03T05:15:11.173Z,27.63
2022-10-03T05:17:37.989Z,26.46
2022-10-03T05:20:20.127Z,23.79
2022-10-03T05:22:52.660Z,22.62
2022-10-03T05:25:41.326Z,22.30
2022-10-03T05:28:52.757Z,22.31
2022-10-03T05:31:45.115Z,21.82
2022-10-03T05:34:33.248Z,21.01
2022-10-03T05:37:35.638Z,21.37
2022-10-03T05:40:05.916Z,22.08
2022-10-03T05:42:55.375Z,23.68
2022-10-03T05:45:25.947Z,24.75
2022-10-03T05:48:34.712Z,23.78
2022-10-03T05:51:20.427Z,23.20
2022-10-03T05:54:16.936Z,23.24
2022-10-03T05:56:58.859Z,23.22
2022-10-03T05:59:43.967Z,21.99
2022-10-03T06:02:40.305Z,22.38
2022-10-03T06:05:13.227Z,21.85
2022-10-03T06:07:58.593Z,21.05
2022-10-03T06:10:53.089Z,21.62
2022-10-03T06:14:07.799Z,21.43
2022-10-03T06:16:55.196Z,22.72
2022-10-03T06:19:37.811Z,24.91
2022-10-03T06:22:35.616Z,24.80
2022-10-03T06:25:21.960Z,25.01
2022-10-03T06:28:19.319Z,26.29
2022-10-03T06:31:11.468Z,24.24
2022-10-03T06:33:55.510Z,23.49
2022-10-03T06:37:08.695Z,22.25
2022-10-03T06:39:57.014Z,22.50
2022-10-03T06:42:42.455Z,24.17
2022-10-03T06:45:09.876Z,24.47
2022-10-03T06:48:02.002Z,23.83
2022-10-03T06:50:35.818Z,23.81
2022-10-03T06:54:00.659Z,23.39
2022-10-03T06:56:31.783Z,20.93
2022-10-03T06:59:20.273Z,20.89
2022-10-03T07:01:59.719Z,20.60
2022-10-03T07:05:14.330Z,20.89
2022-10-03T07:08:18.896Z,20.42
2022-10-03T07:10:57.917Z,20.47
2022-10-03T07:13:39.998Z,19.70
2022-10-03T07:16:38.239Z,18.89
2022-10-03T07:19:16.963Z,18.64
2022-10-03T07:22:25.161Z,18.37
2022-10-03T10:10:09.745Z,16.71
2022-10-03T10:12:57.906Z,17.00
2022-10-03T10:15:51.107Z,16.57
2022-10-03T10:18:23.867Z,15.95
2022-10-03T10:21:21.544Z,15.66
2022-10-03T10:24:09.886Z,16.13
2022-10-03T10:27:16.037Z,16.43
2022-10-03T10:30:04.781Z,16.41
2022-10-03T10:32:53.334Z,16.78
2022-10-03T10:35:57.823Z,16.26
2022-10-03T10:38:47.262Z,16.40
2022-10-03T10:41:41.519Z,16.52
2022-10-03T10:44:46.919Z,16.33
2022-10-03T10:47:19.575Z,16.92
2022-10-03T10:49:58.672Z,17.02
2022-10-03T10:52:25.810Z,17.33
2022-10-03T10:55:31.172Z,17.31
2022-10-03T10:58:34.841Z,17.11
2022-10-03T11:01:35.237Z,17.09
2022-10-03T11:04:27.133Z,17.14
2022-10-03T11:07:17.196Z,17.67
2022-10-03T11:09:52.058Z,17.72
2022-10-03T11:12:38.221Z,17.42
2022-10-03T11:15:16.861Z,17.49
2022-10-03T11:18:11.614Z,17.29
2022-10-03T11:21:15.779Z,17.88
2022-10-03T11:24:13.861Z,18.16
2022-10-03T11:27:18.064Z,17.37
2022-10-03T11:29:59.782Z,17.77
2022-10-03T11:32:32.570Z,18.08
2022-10-03T11:35:33.371Z,17.50
2022-10-03T11:38:11.387Z,17.14
2022-10-03T11:41:08.738Z,17.34
2022-10-03T11:43:57.273Z,16.88
2022-10-03T11:46:46.190Z,17.21
2022-10-03T11:49:31.219Z,17.58
2022-10-03T11:52:19.295Z,17.45
2022-10-03T11:54:48.165Z,17.21
2022-10-03T11:57:30.522Z,17.97
2022-10-03T12:00:05.414Z,17.33
2022-10-03T12:02:41.978Z,17.55
2022-10-03T12:05:42.329Z,17.77
2022-10-03T12:08:47.938Z,17.90
2022-10-03T12:11:43.917Z,17.97
2022-10-03T12:14:21.400Z,18.24
2022-10-03T12:16:57.795Z,17.49
2022-10-03T12:19:37.469Z,17.79
2022-10-03T12:22:36.925Z,17.55
2022-10-03T12:25:23.404Z,17.53
2022-10-03T12:28:25.590Z,17.51
2022-10-03T12:31:18.788Z,17.56
2022-10-03T12:33:59.850Z,17.26
2022-10-03T12:36:47.973Z,17.34
2022-10-03T12:40:00.868Z,17.20
2022-10-03T12:43:04.511Z,16.93
2022-10-03T12:46:01.664Z,16.58
2022-10-03T12:48:31.693Z,16.40
2022-10-03T12:51:07.960Z,16.26
2022-10-03T12:53:41.857Z,16.47
2022-10-03T12:56:38.538Z,16.30
2022-10-03T12:59:11.260Z,16.32
2022-10-03T13:02:03.096Z,16.29
2022-10-03T13:04:35.973Z,16.19
2022-10-03T13:07:52.924Z,16.16
2022-10-03T13:11:07.733Z,16.45
2022-10-03T13:14:09.698Z,16.42
2022-10-03T13:17:17.573Z,16.64
2022-10-03T13:20:09.495Z,16.14
2022-10-03T13:23:18.816Z,16.08
2022-10-03T13:25:57.364Z,16.15
2022-10-03T13:28:35.955Z,16.14
2022-10-03T13:31:22.599Z,16.23
2022-10-03T13:33:58.150Z,16.20
2022-10-03T13:36:29.443Z,16.14
2022-10-03T13:39:03.028Z,16.13
2022-10-03T13:41:42.853Z,16.22
2022-10-03T13:44:36.737Z,16.11
2022-10-03T13:47:12.404Z,16.17
2022-10-03T13:49:48.501Z,16.20
2022-10-03T13:52:36.509Z,16.12
2022-10-03T13:55:18.410Z,16.36
2022-10-03T13:57:56.877Z,16.28
2022-10-03T14:00:26.647Z,16.46
2022-10-03T14:03:05.424Z,16.50
2022-10-03T14:05:57.667Z,16.68
2022-10-03T14:08:39.848Z,16.83
2022-10-03T14:11:22.838Z,16.78
2022-10-03T14:14:21.646Z,17.09
2022-10-03T14:17:00.870Z,17.23
2022-10-03T14:20:06.672Z,17.33
2022-10-03T14:22:52.488Z,17.60
2022-10-03T14:25:28.582Z,17.75
2022-10-03T14:28:02.247Z,17.92
2022-10-03T14:31:05.862Z,18.07
2022-10-03T14:33:36.276Z,17.97
2022-10-03T14:36:09.175Z,17.80
2022-10-03T14:39:03.506Z,18.12
2022-10-03T14:41:33.124Z,18.57
2022-10-03T14:44:13.248Z,18.90
2022-10-03T14:46:53.085Z,19.10
2022-10-03T14:49:51.344Z,19.30
2022-10-03T14:52:34.973Z,19.14
2022-10-03T14:55:13.423Z,19.28
2022-10-03T14:58:20.427Z,19.48
2022-10-03T15:01:00.870Z,19.39
2022-10-03T15:03:38.911Z,19.11
2022-10-03T15:06:33.112Z,18.14
2022-10-03T15:09:05.517Z,17.50
2022-10-03T15:11:38.641Z,17.43
2022-10-03T15:14:10.355Z,17.55
2022-10-03T15:16:50.135Z,17.53
2022-10-03T15:19:19.048Z,17.58
2022-10-03T15:21:48.711Z,17.54
2022-10-03T15:24:28.551Z,17.60
2022-10-03T15:27:01.799Z,17.49
2022-10-03T15:29:31.144Z,17.53
2022-10-03T15:31:59.168Z,17.47
2022-10-03T15:34:33.392Z,17.58
2022-10-03T15:37:08.171Z,17.47
2022-10-03T15:39:37.738Z,17.53
2022-10-03T15:42:10.525Z,17.48
2022-10-03T15:44:50.335Z,17.44
2022-10-03T15:47:33.942Z,17.44
2022-10-03T15:50:08.334Z,17.48
2022-10-03T15:52:47.179Z,17.43
2022-10-03T15:55:16.355Z,17.50
2022-10-03T15:57:49.839Z,17.82
2022-10-03T16:00:28.510Z,17.94
2022-10-03T16:03:28.324Z,17.68
2022-10-03T16:06:21.406Z,17.49
2022-10-03T16:09:16.710Z,17.60
2022-10-03T16:12:06.748Z,17.38
2022-10-03T16:14:45.579Z,17.28
2022-10-03T16:17:21.850Z,17.26
2022-10-03T16:20:06.715Z,17.29
2022-10-03T16:22:45.594Z,16.98
2022-10-03T16:25:27.140Z,16.70
2022-10-03T16:28:07.814Z,16.33
2022-10-03T16:30:41.645Z,16.32
2022-10-03T16:33:20.862Z,16.36
2022-10-03T16:36:09.512Z,16.16
2022-10-03T16:38:39.243Z,16.06
2022-10-03T16:41:12.832Z,15.93
2022-10-03T16:43:41.356Z,15.78
2022-10-03T16:46:18.224Z,15.66
2022-10-03T16:49:04.284Z,15.82
2022-10-03T16:52:01.043Z,15.83
2022-10-03T16:54:29.222Z,15.77
2022-10-03T16:57:00.442Z,15.80
2022-10-03T16:59:30.738Z,15.95
2022-10-03T17:02:04.919Z,15.99
2022-10-03T17:04:32.931Z,16.14
2022-10-03T17:07:23.793Z,15.83
2022-10-03T17:09:53.607Z,15.63
2022-10-03T17:12:25.863Z,15.50
2022-10-03T17:14:58.150Z,15.48
2022-10-03T17:17:37.229Z,15.30
2022-10-03T17:20:14.146Z,15.52
2022-10-03T17:22:52.783Z,15.60
2022-10-03T17:25:37.350Z,15.72
2022-10-03T17:28:08.636Z,15.56
2022-10-03T17:30:48.039Z,15.65
2022-10-03T17:33:46.773Z,15.61
2022-10-03T17:36:13.611Z,15.50
2022-10-03T17:38:57.203Z,15.64
2022-10-03T17:42:01.430Z,15.93
2022-10-03T17:45:06.818Z,16.17
2022-10-03T17:47:39.402Z,16.22
2022-10-03T17:50:17.474Z,16.52
2022-10-03T17:52:46.829Z,16.15
2022-10-03T17:55:36.155Z,16.30
2022-10-03T17:58:13.011Z,15.87
2022-10-03T18:00:45.978Z,14.94
2022-10-03T18:03:16.967Z,14.72
2022-10-03T18:05:47.207Z,14.53
2022-10-03T18:08:20.170Z,14.75
2022-10-03T18:10:50.606Z,14.87
2022-10-03T18:13:30.550Z,14.80
2022-10-03T18:16:30.399Z,14.72
2022-10-03T18:19:22.691Z,15.00
2022-10-03T18:22:18.887Z,15.39
2022-10-03T18:25:29.177Z,15.43
2022-10-03T18:28:14.071Z,15.18
2022-10-03T18:30:46.468Z,15.04
2022-10-03T18:33:16.597Z,15.10
2022-10-03T18:35:49.115Z,15.06
2022-10-03T18:38:24.250Z,14.24
2022-10-03T18:40:53.584Z,14.18
2022-10-03T18:43:45.486Z,14.18
2022-10-03T18:46:24.933Z,14.18
2022-10-03T18:49:28.235Z,13.97
2022-10-03T18:51:52.914Z,14.11
2022-10-03T18:54:45.247Z,14.29
2022-10-03T18:57:19.374Z,14.44
2022-10-03T18:59:57.704Z,14.41
2022-10-03T19:02:47.697Z,14.51
2022-10-03T19:05:18.358Z,14.02
2022-10-03T19:08:30.141Z,13.14
2022-10-03T19:11:20.802Z,12.62
2022-10-03T19:14:09.428Z,12.59
2022-10-03T19:17:11.586Z,12.78
2022-10-03T19:19:59.476Z,12.61
2022-10-03T19:22:31.938Z,12.61
2022-10-03T19:25:04.268Z,12.76
2022-10-03T19:27:43.150Z,12.97
2022-10-03T19:30:18.854Z,13.31
2022-10-03T19:33:07.928Z,13.46
2022-10-03T19:35:40.099Z,13.49
2022-10-03T19:38:16.150Z,13.47
2022-10-03T19:41:15.201Z,13.99
2022-10-03T19:43:49.567Z,14.39
2022-10-03T19:46:27.048Z,14.65
2022-10-03T19:49:13.027Z,14.82
2022-10-03T19:51:40.394Z,14.79
2022-10-03T19:54:27.968Z,14.44
2022-10-03T19:56:55.377Z,14.59
2022-10-03T19:59:38.289Z,14.70
2022-10-03T20:02:07.098Z,14.88
2022-10-03T20:04:36.951Z,14.53
2022-10-03T20:07:17.835Z,14.39
2022-10-03T20:09:57.346Z,14.38
2022-10-03T20:12:30.813Z,14.10
2022-10-03T20:15:16.031Z,14.08
2022-10-03T20:17:43.920Z,13.95
2022-10-03T20:20:19.041Z,14.10
2022-10-03T20:22:46.300Z,14.11
2022-10-03T20:25:31.302Z,14.15
2022-10-03T20:28:03.580Z,14.43
2022-10-03T20:30:50.649Z,14.38
2022-10-03T20:33:27.733Z,13.73
2022-10-03T20:36:23.406Z,13.53
2022-10-03T20:39:22.405Z,13.10
2022-10-03T20:42:00.592Z,13.30
2022-10-03T20:44:33.230Z,13.21
2022-10-03T20:47:16.644Z,12.66
2022-10-03T20:49:50.289Z,12.85
2022-10-03T20:52:22.916Z,13.30
2022-10-03T20:54:52.269Z,13.60
2022-10-03T20:57:20.961Z,13.75
2022-10-03T21:00:10.556Z,13.87
2022-10-03T21:02:53.067Z,13.79
2022-10-03T21:05:34.371Z,13.60
2022-10-03T21:08:04.531Z,13.17
2022-10-03T21:10:43.208Z,12.95
2022-10-03T21:13:36.304Z,13.23
2022-10-03T21:16:15.442Z,13.30
2022-10-03T21:18:47.582Z,13.29
2022-10-03T21:21:19.681Z,13.07
2022-10-03T21:24:02.729Z,13.13
2022-10-03T21:26:33.147Z,13.03
2022-10-03T21:29:33.460Z,13.13
2022-10-03T21:32:31.032Z,12.88
2022-10-03T21:35:28.248Z,12.94
2022-10-03T21:38:16.615Z,13.05
2022-10-03T21:41:22.999Z,13.18
2022-10-03T21:43:52.640Z,13.13
2022-10-03T21:46:46.990Z,13.03
2022-10-03T21:49:29.368Z,13.25
2022-10-03T21:52:05.182Z,13.35
2022-10-03T21:54:54.186Z,13.53
2022-10-03T21:57:49.833Z,13.55
2022-10-03T22:00:19.447Z,13.52
2022-10-03T22:02:55.644Z,13.62
2022-10-03T22:05:55.180Z,13.67
2022-10-03T22:08:25.618Z,13.89
2022-10-03T22:11:15.438Z,14.03
2022-10-03T22:13:52.654Z,13.88
2022-10-03T22:17:00.996Z,14.01
2022-10-03T22:19:36.967Z,13.89
2022-10-03T22:22:08.348Z,13.39
2022-10-03T22:25:20.081Z,13.30
2022-10-03T22:28:04.262Z,13.40
2022-10-03T22:30:36.493Z,13.42
2022-10-03T22:33:21.930Z,13.66
2022-10-03T22:35:54.862Z,13.75
2022-10-03T22:38:26.933Z,13.72
2022-10-03T22:40:56.195Z,13.30
2022-10-03T22:43:24.125Z,13.12
2022-10-03T22:45:53.434Z,12.99
2022-10-03T22:48:32.804Z,13.10
2022-10-03T22:51:01.545Z,13.04
2022-10-03T22:53:35.153Z,12.89
2022-10-03T22:56:23.381Z,12.95
2022-10-03T22:58:52.066Z,12.99
2022-10-03T23:01:19.148Z,13.09
2022-10-03T23:03:46.567Z,13.25
2022-10-03T23:06:31.036Z,13.16
2022-10-03T23:09:16.194Z,13.32
2022-10-03T23:11:45.771Z,13.24
2022-10-03T23:14:22.093Z,13.30
2022-10-03T23:17:08.601Z,13.28
2022-10-03T23:19:50.114Z,13.17
2022-10-03T23:22:21.723Z,13.10
2022-10-03T23:25:01.397Z,13.04
2022-10-03T23:27:46.219Z,13.17
2022-10-03T23:30:13.044Z,13.57
2022-10-03T23:32:48.881Z,13.45
2022-10-03T23:35:31.038Z,13.32
2022-10-03T23:37:59.743Z,13.24
2022-10-03T23:40:40.439Z,13.51
2022-10-03T23:43:44.454Z,13.77
2022-10-03T23:46:15.773Z,14.14
2022-10-03T23:48:46.659Z,14.14
2022-10-03T23:51:18.462Z,14.04
2022-10-03T23:53:52.764Z,14.14
2022-10-03T23:56:29.395Z,14.14
2022-10-03T23:59:03.819Z,14.14
